Rocky Mount Wilson Regional Airport
KRWI : now visible

Airfield :











YOU CAN JOIN US ON...

 
LOGIN :

Register | Disclaimer

   EN    FR    IT 

 









Legend :    VFR   Marginal VFR   IFR   Intensive IFR   Very Intensive IFR
Visi :
Ceiling :
>= 8 km
>= 3000ft
5 to 8 km
1000 to 3000 ft
1500m to 5 km
500 to 1000 ft
800 to 1500m
200 to 500 ft
< 800m
< 200 ft
Symbols :   Thunderstorms  Fog  Heavy snow  Heavy precipitations  Wind > 20 kt






- Airport Elevation : 159 ft
- IATA code : RWI


KRWI - Rocky Mount Wilson Regional

CURRENT METAR :
  • 170153Z AUTO 00000KT 10SM CLR 25/17 A3017 RMK AO2 SLP215 T02500167

EXPIRED METARs :
  • 170053Z AUTO 09003KT 10SM BKN080 26/17 A3016 RMK AO2 SLP211 T02610167
  • 162353Z AUTO 06003KT 10SM BKN075 OVC090 28/18 A3016 RMK AO2 SLP210 T02780178 10322 20278 53003
  • 162253Z AUTO VRB03KT 10SM BKN090 29/17 A3015 RMK AO2 SLP207 T02890172
  • 162153Z AUTO VRB03KT 10SM BKN080 29/17 A3015 RMK AO2 SLP208 T02940172

TAF KRWI
Valid from the 17 at 00:00 until the 18 at 00:00 UTC


162333Z 1700/1724 VRB03KT P6SM BKN090
FM171300 16005KT P6SM BKN100
KZDC FIR / North America



MET'MAP, your aeronautical weather chart ! - Copyright ORBIFLY December 2007 - Disclaimer

ORBIFLY MET'MAP TEAM :

Programming & Development : Alexandra Zaïnal
Original concept : Baudouin d'Aumeries
Technical & hardware support : Manuel Goepfert
Assistance : Marc-Olivier Méhu




SOURCES & CREDITS :

   NOAA       Earth
Advisory